createdAt,value
2019-05-10T00:00:20.372Z,10.00
2019-05-10T00:03:09.122Z,10.00
2019-05-10T00:05:57.672Z,10.00
2019-05-10T00:08:46.025Z,10.00
2019-05-10T00:11:36.415Z,10.00
2019-05-10T00:14:10.632Z,10.00
2019-05-10T00:16:40.958Z,10.00
2019-05-10T00:19:11.484Z,10.00
2019-05-10T00:21:42.423Z,10.00
2019-05-10T00:24:12.743Z,10.00
2019-05-10T00:26:43.684Z,10.00
2019-05-10T00:29:14.003Z,10.00
2019-05-10T00:31:44.737Z,10.00
2019-05-10T00:34:15.266Z,10.00
2019-05-10T00:36:45.593Z,9.90
2019-05-10T00:39:19.244Z,9.90
2019-05-10T00:41:48.289Z,9.90
2019-05-10T00:44:18.818Z,9.80
2019-05-10T00:46:49.943Z,9.80
2019-05-10T00:49:20.288Z,9.80
2019-05-10T00:51:51.222Z,9.80
2019-05-10T00:54:21.951Z,9.80
2019-05-10T00:56:52.485Z,9.80
2019-05-10T00:59:22.798Z,9.80
2019-05-10T01:01:53.138Z,9.80
2019-05-10T01:04:23.867Z,9.80
2019-05-10T01:06:56.399Z,9.80
2019-05-10T01:09:26.639Z,9.80
2019-05-10T01:11:57.392Z,9.80
2019-05-10T01:14:28.037Z,9.80
2019-05-10T01:16:58.351Z,9.70
2019-05-10T01:19:28.829Z,9.70
2019-05-10T01:21:58.869Z,9.70
2019-05-10T01:24:28.912Z,9.70
2019-05-10T01:26:58.959Z,9.60
2019-05-10T01:29:29.310Z,9.60
2019-05-10T01:31:59.850Z,9.50
2019-05-10T01:34:29.933Z,9.50
2019-05-10T01:37:00.061Z,9.50
2019-05-10T01:39:30.119Z,9.50
2019-05-10T01:42:00.104Z,9.50
2019-05-10T01:44:30.185Z,9.50
2019-05-10T01:47:00.215Z,9.50
2019-05-10T01:52:24.800Z,9.30
2019-05-10T01:54:55.321Z,9.20
2019-05-10T01:57:25.637Z,9.20
2019-05-10T01:59:56.174Z,9.10
2019-05-10T02:02:26.394Z,9.20
2019-05-10T02:04:57.231Z,9.20
2019-05-10T02:07:27.764Z,9.20
2019-05-10T02:09:58.294Z,9.20
2019-05-10T02:12:28.821Z,9.20
2019-05-10T02:14:59.145Z,9.20
2019-05-10T02:17:41.470Z,9.10
2019-05-10T02:20:11.673Z,9.60
2019-05-10T02:22:42.813Z,9.20
2019-05-10T02:25:13.439Z,9.20
2019-05-10T02:27:44.070Z,9.30
2019-05-10T02:30:14.738Z,9.30
2019-05-10T02:32:45.747Z,9.30
2019-05-10T02:35:16.274Z,9.40
2019-05-10T02:37:46.805Z,9.40
2019-05-10T02:40:17.484Z,9.40
2019-05-10T02:42:47.865Z,9.50
2019-05-10T02:45:18.590Z,9.50
2019-05-10T02:47:55.061Z,9.60
2019-05-10T02:50:25.592Z,9.60
2019-05-10T02:52:55.915Z,9.60
2019-05-10T02:55:26.770Z,9.60
2019-05-10T02:57:57.378Z,9.60
2019-05-10T03:00:28.319Z,9.70
2019-05-10T03:03:00.101Z,9.70
2019-05-10T03:05:33.064Z,9.70
2019-05-10T03:08:04.094Z,9.70
2019-05-10T03:10:36.988Z,9.70
2019-05-10T03:13:08.974Z,9.80
2019-05-10T03:15:39.478Z,9.80
2019-05-10T03:18:10.208Z,9.80
2019-05-10T03:20:40.947Z,9.80
2019-05-10T03:23:11.479Z,9.80
2019-05-10T03:25:41.795Z,9.80
2019-05-10T03:28:12.118Z,9.90
2019-05-10T03:30:42.651Z,9.90
2019-05-10T03:33:13.644Z,9.90
2019-05-10T03:35:44.118Z,9.90
2019-05-10T03:38:14.798Z,9.90
2019-05-10T03:40:45.175Z,10.00
2019-05-10T03:43:15.704Z,9.90
2019-05-10T03:45:46.639Z,10.00
2019-05-10T03:48:17.164Z,10.00
2019-05-10T03:50:47.698Z,10.00
2019-05-10T03:53:18.222Z,10.10
2019-05-10T03:55:49.159Z,10.10
2019-05-10T03:58:19.694Z,10.20
2019-05-10T04:00:50.012Z,10.20
2019-05-10T04:03:21.975Z,10.20
2019-05-10T04:05:52.504Z,10.20
2019-05-10T04:08:24.469Z,10.20
2019-05-10T04:10:54.788Z,10.20
2019-05-10T04:13:25.317Z,10.20
2019-05-10T04:15:55.955Z,10.10
2019-05-10T04:18:26.379Z,10.10
2019-05-10T04:20:57.318Z,10.10
2019-05-10T04:23:27.858Z,10.10
2019-05-10T04:25:58.779Z,10.10
2019-05-10T04:28:29.722Z,10.00
2019-05-10T04:31:00.044Z,9.90
2019-05-10T04:33:30.572Z,9.90
2019-05-10T04:36:01.304Z,9.90
2019-05-10T04:38:31.832Z,9.90
2019-05-10T04:41:02.364Z,10.00
2019-05-10T04:43:32.888Z,10.10
2019-05-10T04:46:03.827Z,10.10
2019-05-10T04:48:34.363Z,10.20
2019-05-10T04:51:04.887Z,10.20
2019-05-10T04:53:35.207Z,10.20
2019-05-10T04:56:05.943Z,10.20
2019-05-10T04:58:36.469Z,10.30
2019-05-10T05:01:07.207Z,10.30
2019-05-10T05:03:37.952Z,10.30
2019-05-10T05:06:08.670Z,10.40
2019-05-10T05:08:39.199Z,10.50
2019-05-10T05:11:10.346Z,10.70
2019-05-10T05:13:40.876Z,10.80
2019-05-10T05:16:11.194Z,10.90
2019-05-10T05:18:42.746Z,10.90
2019-05-10T05:21:13.274Z,10.90
2019-05-10T05:23:44.007Z,11.00
2019-05-10T05:26:14.540Z,11.00
2019-05-10T05:28:45.478Z,11.00
2019-05-10T05:31:15.798Z,11.00
2019-05-10T05:33:46.329Z,10.90
2019-05-10T05:36:16.856Z,10.90
2019-05-10T05:38:49.527Z,10.90
2019-05-10T05:41:19.550Z,10.90
2019-05-10T05:43:50.084Z,11.00
2019-05-10T05:46:20.608Z,11.00
2019-05-10T05:48:51.531Z,11.00
2019-05-10T05:51:22.283Z,11.10
2019-05-10T05:53:52.819Z,11.10
2019-05-10T05:56:23.750Z,11.30
2019-05-10T05:58:54.274Z,11.30
2019-05-10T06:01:28.872Z,11.50
2019-05-10T06:04:00.208Z,11.50
2019-05-10T06:06:28.931Z,11.60
2019-05-10T06:09:00.012Z,11.60
2019-05-10T06:11:35.679Z,11.50
2019-05-10T06:14:10.937Z,11.70
2019-05-10T06:16:38.424Z,11.80
2019-05-10T06:19:08.647Z,11.80
2019-05-10T06:21:39.687Z,11.90
2019-05-10T06:24:13.604Z,12.00
2019-05-10T06:26:41.966Z,12.00
2019-05-10T06:29:17.507Z,11.90
2019-05-10T06:31:49.582Z,12.20
2019-05-10T06:34:20.106Z,12.20
2019-05-10T06:36:50.434Z,12.00
2019-05-10T06:39:20.958Z,12.20
2019-05-10T06:41:55.945Z,12.50
2019-05-10T06:44:25.096Z,12.70
2019-05-10T06:46:55.006Z,12.70
2019-05-10T06:49:25.529Z,12.50
2019-05-10T06:51:56.267Z,12.60
2019-05-10T06:54:26.792Z,12.70
2019-05-10T06:56:57.940Z,12.70
2019-05-10T06:59:28.463Z,12.70
2019-05-10T07:01:58.992Z,12.80
2019-05-10T07:04:34.322Z,12.80
2019-05-10T07:07:01.488Z,13.00
2019-05-10T07:10:00.296Z,13.20
2019-05-10T07:12:09.397Z,13.20
2019-05-10T07:14:43.055Z,13.30
2019-05-10T07:17:09.131Z,13.40
2019-05-10T07:19:41.628Z,13.30
2019-05-10T07:22:11.628Z,13.50
2019-05-10T07:24:42.148Z,13.60
2019-05-10T07:27:12.686Z,13.70
2019-05-10T07:29:46.110Z,13.30
2019-05-10T07:32:16.398Z,13.40
2019-05-10T07:34:48.887Z,13.30
2019-05-10T07:37:19.501Z,13.10
2019-05-10T07:39:50.027Z,12.90
2019-05-10T07:42:20.564Z,12.70
2019-05-10T07:44:51.092Z,12.70
2019-05-10T07:47:24.008Z,12.70
2019-05-10T07:49:53.370Z,12.60
2019-05-10T07:52:24.310Z,12.70
2019-05-10T07:54:55.453Z,12.70
2019-05-10T07:57:27.120Z,12.70
2019-05-10T08:00:03.104Z,12.80
2019-05-10T08:02:29.495Z,12.90
2019-05-10T08:05:04.943Z,13.00
2019-05-10T08:07:31.781Z,13.40
2019-05-10T08:10:04.721Z,13.50
2019-05-10T08:12:35.302Z,13.80
2019-05-10T08:15:10.334Z,14.00
2019-05-10T08:17:45.374Z,14.10
2019-05-10T08:20:20.382Z,14.10
2019-05-10T08:22:46.207Z,14.10
2019-05-10T08:25:17.568Z,14.20
2019-05-10T08:27:50.410Z,14.80
2019-05-10T08:30:28.805Z,14.70
2019-05-10T08:32:55.298Z,14.40
2019-05-10T08:35:26.235Z,14.10
2019-05-10T08:37:56.555Z,14.00
2019-05-10T08:40:34.304Z,13.90
2019-05-10T08:43:06.547Z,13.80
2019-05-10T08:45:32.499Z,14.00
2019-05-10T08:48:06.932Z,14.40
2019-05-10T08:50:49.681Z,15.30
2019-05-10T08:53:10.752Z,15.30
2019-05-10T08:55:39.680Z,15.20
2019-05-10T08:58:12.241Z,14.80
2019-05-10T09:00:54.131Z,15.00
2019-05-10T09:03:18.267Z,15.80
2019-05-10T09:05:45.686Z,17.00
2019-05-10T09:08:19.944Z,18.50
2019-05-10T09:10:47.973Z,19.40
2019-05-10T09:13:18.495Z,19.90
2019-05-10T09:15:56.012Z,20.30
2019-05-10T09:18:22.753Z,21.00
2019-05-10T09:20:54.243Z,21.00
2019-05-10T09:23:24.911Z,21.60
2019-05-10T09:25:55.440Z,20.80
2019-05-10T09:28:25.968Z,19.90
2019-05-10T09:31:01.225Z,19.80
2019-05-10T09:33:28.259Z,20.50
2019-05-10T09:35:59.310Z,20.90
2019-05-10T09:38:37.173Z,20.90
2019-05-10T09:41:02.556Z,21.30
2019-05-10T09:43:33.445Z,20.60
2019-05-10T09:46:03.769Z,20.20
2019-05-10T09:48:34.297Z,19.40
2019-05-10T09:51:04.827Z,18.70
2019-05-10T09:53:38.021Z,18.30
2019-05-10T09:56:07.911Z,18.10
2019-05-10T09:58:38.792Z,17.90
2019-05-10T10:01:17.724Z,17.30
2019-05-10T10:03:43.691Z,17.30
2019-05-10T10:06:13.319Z,17.40
2019-05-10T10:08:48.573Z,16.90
2019-05-10T10:11:18.168Z,16.80
2019-05-10T10:13:50.173Z,16.40
2019-05-10T10:16:19.940Z,16.30
2019-05-10T10:18:50.486Z,16.00
2019-05-10T10:21:30.565Z,16.10
2019-05-10T10:23:52.755Z,16.60
2019-05-10T10:26:23.279Z,16.70
2019-05-10T10:28:54.948Z,16.80
2019-05-10T10:31:30.458Z,16.80
2019-05-10T10:33:59.659Z,16.40
2019-05-10T10:36:29.491Z,16.50
2019-05-10T10:39:00.019Z,16.80
2019-05-10T10:41:31.754Z,16.90
2019-05-10T10:44:02.305Z,16.80
2019-05-10T10:46:34.549Z,16.60
2019-05-10T10:49:05.538Z,16.30
2019-05-10T10:51:37.922Z,16.00
2019-05-10T10:54:08.112Z,16.00
2019-05-10T10:56:38.838Z,15.90
2019-05-10T10:59:09.071Z,16.30
2019-05-10T11:01:50.027Z,17.00
2019-05-10T11:04:11.857Z,17.30
2019-05-10T11:06:42.186Z,17.40
2019-05-10T11:09:12.709Z,17.30
2019-05-10T11:11:44.704Z,17.30
2019-05-10T11:14:15.404Z,17.90
2019-05-10T11:16:46.615Z,18.10
2019-05-10T11:19:20.328Z,17.90
2019-05-10T11:21:51.429Z,17.60
2019-05-10T11:24:22.926Z,17.60
2019-05-10T11:26:53.988Z,17.60
2019-05-10T11:29:27.795Z,17.70
2019-05-10T11:32:12.271Z,17.80
2019-05-10T11:34:36.791Z,17.70
2019-05-10T11:37:00.812Z,17.90
2019-05-10T11:39:40.267Z,17.90
2019-05-10T11:42:07.146Z,18.10
2019-05-10T11:44:41.404Z,18.60
2019-05-10T11:47:20.921Z,19.20
2019-05-10T11:49:40.648Z,20.20
2019-05-10T11:52:13.217Z,20.30
2019-05-10T11:54:43.168Z,19.60
2019-05-10T11:57:13.999Z,19.10
2019-05-10T11:59:44.572Z,18.80
2019-05-10T12:02:33.900Z,19.00
2019-05-10T12:04:47.277Z,19.00
2019-05-10T12:07:24.598Z,19.40
2019-05-10T12:09:55.657Z,19.30
2019-05-10T12:12:29.683Z,19.10
2019-05-10T12:14:56.659Z,19.20
2019-05-10T12:17:27.348Z,19.70
2019-05-10T12:19:57.823Z,19.70
2019-05-10T12:22:38.184Z,19.50
2019-05-10T12:25:23.833Z,19.50
2019-05-10T12:27:43.962Z,19.60
2019-05-10T12:30:06.487Z,19.80
2019-05-10T12:32:46.854Z,19.90
2019-05-10T12:35:11.521Z,20.00
2019-05-10T12:37:46.518Z,19.40
2019-05-10T12:40:15.407Z,18.90
2019-05-10T12:42:47.191Z,18.70
2019-05-10T12:45:22.977Z,18.70
2019-05-10T12:47:51.760Z,18.90
2019-05-10T12:50:23.435Z,18.90
2019-05-10T12:53:03.194Z,18.70
2019-05-10T12:55:26.313Z,18.90
2019-05-10T12:57:56.642Z,19.00
2019-05-10T13:00:27.171Z,18.90
2019-05-10T13:03:11.582Z,19.00
2019-05-10T13:05:31.935Z,19.20
2019-05-10T13:08:01.415Z,19.20
2019-05-10T13:10:37.285Z,18.80
2019-05-10T13:13:05.957Z,18.80
2019-05-10T13:15:36.459Z,18.70
2019-05-10T13:18:07.021Z,18.70
2019-05-10T13:20:38.747Z,18.50
2019-05-10T13:23:09.938Z,18.40
2019-05-10T13:25:42.078Z,18.40
2019-05-10T13:28:12.608Z,18.70
2019-05-10T13:30:43.754Z,18.90
2019-05-10T13:33:27.737Z,19.10
2019-05-10T13:35:50.951Z,19.20
2019-05-10T13:38:18.416Z,18.90
2019-05-10T13:40:48.949Z,19.10
2019-05-10T13:43:26.712Z,19.10
2019-05-10T13:45:51.431Z,19.10
2019-05-10T13:48:25.842Z,19.10
2019-05-10T13:50:53.921Z,19.20
2019-05-10T13:53:24.130Z,19.00
2019-05-10T13:55:55.596Z,19.00
2019-05-10T13:58:26.536Z,19.00
2019-05-10T14:00:57.888Z,18.90
2019-05-10T14:03:43.259Z,18.90
2019-05-10T14:06:05.075Z,18.80
2019-05-10T14:08:35.603Z,18.90
2019-05-10T14:11:06.132Z,19.00
2019-05-10T14:13:41.591Z,19.10
2019-05-10T14:16:18.299Z,19.10
2019-05-10T14:18:44.890Z,19.10
2019-05-10T14:21:15.209Z,19.10
2019-05-10T14:23:46.154Z,19.00
2019-05-10T14:26:18.272Z,18.90
2019-05-10T14:28:52.935Z,18.80
2019-05-10T14:31:20.610Z,18.90
2019-05-10T14:34:14.030Z,18.90
2019-05-10T14:36:23.709Z,18.70
2019-05-10T14:38:56.143Z,18.70
2019-05-10T14:41:26.401Z,18.70
2019-05-10T14:43:56.929Z,18.70
2019-05-10T14:46:27.463Z,18.70
2019-05-10T14:49:09.211Z,18.70
2019-05-10T14:51:44.102Z,18.80
2019-05-10T14:54:07.118Z,19.00
2019-05-10T14:56:33.875Z,19.50
2019-05-10T14:59:04.409Z,19.40
2019-05-10T15:01:36.705Z,19.10
2019-05-10T15:04:07.716Z,18.90
2019-05-10T15:06:39.026Z,18.80
2019-05-10T15:09:20.473Z,18.70
2019-05-10T15:11:41.772Z,19.00
2019-05-10T15:14:12.908Z,19.00
2019-05-10T15:16:43.222Z,19.00
2019-05-10T15:19:13.754Z,18.80
2019-05-10T15:21:45.718Z,18.80
2019-05-10T15:24:16.241Z,18.90
2019-05-10T15:26:48.209Z,18.90
2019-05-10T15:29:24.547Z,18.80
2019-05-10T15:31:54.790Z,18.70
2019-05-10T15:34:25.118Z,18.60
2019-05-10T15:37:02.305Z,18.60
2019-05-10T15:39:30.515Z,18.70
2019-05-10T15:42:01.204Z,18.70
2019-05-10T15:44:33.694Z,18.60
2019-05-10T15:47:03.495Z,18.50
2019-05-10T15:49:33.814Z,18.50
2019-05-10T15:52:16.740Z,18.60
2019-05-10T15:54:38.175Z,18.70
2019-05-10T15:57:08.693Z,18.80
2019-05-10T15:59:39.414Z,19.00
2019-05-10T16:02:10.143Z,19.10
2019-05-10T16:04:40.578Z,19.20
2019-05-10T16:07:14.444Z,19.30
2019-05-10T16:09:42.289Z,19.20
2019-05-10T16:12:14.108Z,19.10
2019-05-10T16:14:45.697Z,19.10
2019-05-10T16:17:18.525Z,19.20
2019-05-10T16:19:51.014Z,19.20
2019-05-10T16:22:25.344Z,19.20
2019-05-10T16:24:52.278Z,19.20
2019-05-10T16:27:22.806Z,19.20
2019-05-10T16:29:53.335Z,19.10
2019-05-10T16:32:29.403Z,19.00
2019-05-10T16:34:56.027Z,18.90
2019-05-10T16:37:26.343Z,18.90
2019-05-10T16:39:56.741Z,18.90
2019-05-10T16:42:27.658Z,18.90
2019-05-10T16:44:58.530Z,18.80
2019-05-10T16:47:28.665Z,18.70
2019-05-10T16:49:58.691Z,18.70
2019-05-10T16:52:28.749Z,18.60
2019-05-10T16:55:03.740Z,18.40
2019-05-10T16:57:31.896Z,18.20
2019-05-10T17:00:08.120Z,18.00
2019-05-10T17:02:36.730Z,17.80
2019-05-10T17:05:09.609Z,17.70
2019-05-10T17:07:40.225Z,17.60
2019-05-10T17:10:10.559Z,17.50
2019-05-10T17:12:40.536Z,17.40
2019-05-10T17:15:11.045Z,17.30
2019-05-10T17:17:44.414Z,17.20
2019-05-10T17:20:15.856Z,17.10
2019-05-10T17:22:44.628Z,17.00
2019-05-10T17:25:15.104Z,16.90
2019-05-10T17:27:50.591Z,16.80
2019-05-10T17:30:21.632Z,16.70
2019-05-10T17:32:48.870Z,16.60
2019-05-10T17:35:18.932Z,16.50
2019-05-10T17:37:49.021Z,16.50
2019-05-10T17:40:19.447Z,16.40
2019-05-10T17:42:51.522Z,16.40
2019-05-10T17:45:21.280Z,16.40
2019-05-10T17:47:51.320Z,16.30
2019-05-10T17:50:21.405Z,16.30
2019-05-10T17:52:51.459Z,16.20
2019-05-10T17:55:21.575Z,16.20
2019-05-10T17:57:54.635Z,16.30
2019-05-10T18:00:23.395Z,16.30
2019-05-10T18:02:53.443Z,16.20
2019-05-10T18:05:23.492Z,16.20
2019-05-10T18:07:53.487Z,16.00
2019-05-10T18:10:23.595Z,15.90
2019-05-10T18:12:57.454Z,15.80
2019-05-10T18:15:27.731Z,15.70
2019-05-10T18:17:57.608Z,15.60
2019-05-10T18:20:28.656Z,15.50
2019-05-10T18:22:58.710Z,15.40
2019-05-10T18:25:28.773Z,15.20
2019-05-10T18:27:58.984Z,15.00
2019-05-10T18:30:29.089Z,14.80
2019-05-10T18:32:59.143Z,14.70
2019-05-10T18:35:29.264Z,14.60
2019-05-10T18:38:00.806Z,14.40
2019-05-10T18:40:32.112Z,14.20
2019-05-10T18:43:04.456Z,14.00
2019-05-10T18:45:34.382Z,13.80
2019-05-10T18:48:04.679Z,13.80
2019-05-10T18:50:39.558Z,13.60
2019-05-10T18:53:07.058Z,13.50
2019-05-10T18:55:37.135Z,13.40
2019-05-10T18:58:07.205Z,13.30
2019-05-10T19:00:40.122Z,13.30
2019-05-10T19:03:08.933Z,13.20
2019-05-10T19:05:38.973Z,13.20
2019-05-10T19:08:09.536Z,13.20
2019-05-10T19:10:40.061Z,13.20
2019-05-10T19:13:11.961Z,13.20
2019-05-10T19:15:46.253Z,13.30
2019-05-10T19:18:17.824Z,13.30
2019-05-10T19:20:48.870Z,13.30
2019-05-10T19:23:21.613Z,13.30
2019-05-10T19:25:54.001Z,13.40
2019-05-10T19:28:26.924Z,13.40
2019-05-10T19:30:58.567Z,13.40
2019-05-10T19:33:36.018Z,13.40
2019-05-10T19:36:01.115Z,13.30
2019-05-10T19:38:31.444Z,13.20
2019-05-10T19:41:01.972Z,13.30
2019-05-10T19:43:33.724Z,13.20
2019-05-10T19:46:04.463Z,13.20
2019-05-10T19:48:36.920Z,13.20
2019-05-10T19:51:09.503Z,13.10
2019-05-10T19:53:42.427Z,13.10
2019-05-10T19:56:11.723Z,13.10
2019-05-10T19:58:42.008Z,13.00
2019-05-10T20:01:13.984Z,13.00
2019-05-10T20:03:44.304Z,12.90
2019-05-10T20:06:16.269Z,12.90
2019-05-10T20:08:47.012Z,13.00
2019-05-10T20:11:17.951Z,12.90
2019-05-10T20:13:48.876Z,12.90
2019-05-10T20:16:19.812Z,12.90
2019-05-10T20:18:50.545Z,12.90
2019-05-10T20:21:21.081Z,13.00
2019-05-10T20:23:51.607Z,12.90
2019-05-10T20:26:22.344Z,12.90
2019-05-10T20:28:54.709Z,12.80
2019-05-10T20:31:25.241Z,12.80
2019-05-10T20:33:55.764Z,12.70
2019-05-10T20:36:26.089Z,12.70
2019-05-10T20:38:56.538Z,12.70
2019-05-10T20:41:27.355Z,12.70
2019-05-10T20:43:58.434Z,12.60
2019-05-10T20:46:28.975Z,12.60
2019-05-10T20:48:59.960Z,12.60
2019-05-10T20:51:30.493Z,12.50
2019-05-10T20:54:03.481Z,12.50
2019-05-10T20:56:34.622Z,12.40
2019-05-10T20:59:05.767Z,12.40
2019-05-10T21:01:36.699Z,12.50
2019-05-10T21:04:07.228Z,12.40
2019-05-10T21:06:37.576Z,12.30
2019-05-10T21:09:09.923Z,12.30
2019-05-10T21:11:40.474Z,12.20
2019-05-10T21:14:22.918Z,12.20
2019-05-10T21:16:53.388Z,12.20
2019-05-10T21:19:23.924Z,12.10
2019-05-10T21:21:54.242Z,12.10
2019-05-10T21:24:24.769Z,12.00
2019-05-10T21:26:55.257Z,12.00
2019-05-10T21:29:25.312Z,12.00
2019-05-10T21:31:56.823Z,12.00
2019-05-10T21:34:26.850Z,12.00
2019-05-10T21:36:57.980Z,11.90
2019-05-10T21:39:28.566Z,11.90
2019-05-10T21:41:59.083Z,11.80
2019-05-10T21:44:29.683Z,11.80
2019-05-10T21:47:03.776Z,11.80
2019-05-10T21:49:39.982Z,11.80
2019-05-10T21:52:10.208Z,11.70
2019-05-10T21:54:41.152Z,11.60
2019-05-10T21:57:11.508Z,11.60
2019-05-10T21:59:42.209Z,11.60
2019-05-10T22:02:13.962Z,11.60
2019-05-10T22:04:47.735Z,11.50
2019-05-10T22:07:16.184Z,11.60
2019-05-10T22:09:47.390Z,11.40
2019-05-10T22:12:17.791Z,11.40
2019-05-10T22:14:48.135Z,11.40
2019-05-10T22:17:18.779Z,11.40
2019-05-10T22:19:48.842Z,11.20
2019-05-10T22:22:18.868Z,11.20
2019-05-10T22:24:48.895Z,11.10
2019-05-10T22:27:18.979Z,11.10
2019-05-10T22:29:49.001Z,11.00
2019-05-10T22:32:19.110Z,11.00
2019-05-10T22:34:49.122Z,11.00
2019-05-10T22:37:19.178Z,11.00
2019-05-10T22:39:49.431Z,11.00
2019-05-10T22:42:19.965Z,11.00
2019-05-10T22:44:50.284Z,11.00
2019-05-10T22:47:20.611Z,11.00
2019-05-10T22:49:51.142Z,11.10
2019-05-10T22:52:21.462Z,11.20
2019-05-10T22:55:04.141Z,11.20
2019-05-10T22:57:34.401Z,11.20
2019-05-10T23:00:09.641Z,11.20
2019-05-10T23:02:40.168Z,11.10
2019-05-10T23:05:10.887Z,11.10
2019-05-10T23:07:41.220Z,11.10
2019-05-10T23:10:11.953Z,11.10
2019-05-10T23:12:42.277Z,11.10
2019-05-10T23:15:12.810Z,11.10
2019-05-10T23:17:43.338Z,11.10
2019-05-10T23:20:14.020Z,11.00
2019-05-10T23:22:44.396Z,10.90
2019-05-10T23:25:14.920Z,10.90
2019-05-10T23:27:45.453Z,10.90
2019-05-10T23:30:15.983Z,10.80
2019-05-10T23:32:46.505Z,10.80
2019-05-10T23:35:17.039Z,10.80
2019-05-10T23:37:47.565Z,10.80
2019-05-10T23:40:18.500Z,10.80
2019-05-10T23:42:48.825Z,10.90
2019-05-10T23:45:19.357Z,10.90
2019-05-10T23:47:49.888Z,10.90
2019-05-10T23:50:20.211Z,10.90
2019-05-10T23:52:50.741Z,10.80
2019-05-10T23:55:21.089Z,10.90
2019-05-10T23:57:51.595Z,10.90
